Terminal Aerodrome Forecast
Issued by NWS Twin Cities, MN

Home | Current Version | Previous Version | Graphics & Text | Print | Product List | Glossary On
Versions: 1 2 3 4 5 6 7 8 9 10 11 12 13 14 15
966
FTUS43 KMPX 201140
TAFEAU
TAF
KEAU 201140Z 2012/2112 16008KT P6SM SCT022 BKN035
     FM201300 16010KT P6SM BKN022
     FM201700 22009KT P6SM SCT150
     FM201900 27008KT P6SM SKC
     FM210000 VRB03KT P6SM SKC=

USA.gov is the U.S. government's official web portal to all federal, state and local government web resources and services.